createdAt,value
2018-03-04T00:01:56.332Z,59.67
2018-03-04T00:04:23.978Z,58.20
2018-03-04T00:06:52.389Z,62.93
2018-03-04T00:09:20.020Z,66.73
2018-03-04T00:11:48.449Z,61.90
2018-03-04T00:14:16.077Z,59.60
2018-03-04T00:16:44.481Z,69.53
2018-03-04T00:19:12.121Z,67.53
2018-03-04T00:21:40.528Z,61.10
2018-03-04T00:24:08.164Z,66.70
2018-03-04T00:26:35.808Z,73.50
2018-03-04T00:29:03.457Z,57.37
2018-03-04T00:31:31.093Z,65.43
2018-03-04T00:33:58.732Z,60.90
2018-03-04T00:36:27.128Z,63.07
2018-03-04T00:38:54.801Z,55.60
2018-03-04T00:41:22.431Z,61.60
2018-03-04T00:43:50.076Z,60.50
2018-03-04T00:46:17.716Z,58.23
2018-03-04T00:48:45.356Z,62.50
2018-03-04T00:51:12.997Z,60.63
2018-03-04T00:53:40.641Z,64.83
2018-03-04T00:56:08.276Z,67.23
2018-03-04T00:58:40.003Z,70.17
2018-03-04T01:01:07.632Z,62.80
2018-03-04T01:03:35.289Z,60.43
2018-03-04T01:06:02.940Z,60.57
2018-03-04T01:08:30.583Z,60.47
2018-03-04T01:10:59.008Z,61.83
2018-03-04T01:13:26.645Z,57.90
2018-03-04T01:15:54.279Z,59.73
2018-03-04T01:18:21.925Z,55.70
2018-03-04T01:20:49.556Z,61.03
2018-03-04T01:23:17.189Z,57.13
2018-03-04T01:25:45.597Z,56.70
2018-03-04T01:28:13.246Z,55.13
2018-03-04T01:30:40.888Z,57.83
2018-03-04T01:33:08.536Z,57.67
2018-03-04T01:35:36.165Z,60.30
2018-03-04T01:38:03.818Z,59.70
2018-03-04T01:40:32.224Z,59.20
2018-03-04T01:42:59.863Z,57.93
2018-03-04T01:45:28.261Z,57.97
2018-03-04T01:47:55.903Z,60.63
2018-03-04T01:50:24.303Z,58.20
2018-03-04T01:52:51.966Z,58.17
2018-03-04T01:55:19.601Z,59.67
2018-03-04T01:57:47.233Z,56.47
2018-03-04T02:00:14.929Z,57.17
2018-03-04T02:02:42.573Z,54.57
2018-03-04T02:05:10.208Z,60.33
2018-03-04T02:07:37.848Z,59.10
2018-03-04T02:10:06.252Z,57.30
2018-03-04T02:12:33.924Z,55.57
2018-03-04T02:15:01.593Z,58.30
2018-03-04T02:17:29.232Z,59.43
2018-03-04T02:19:57.640Z,54.53
2018-03-04T02:22:25.276Z,60.53
2018-03-04T02:24:53.727Z,58.60
2018-03-04T02:27:21.361Z,59.90
2018-03-04T02:29:49.000Z,61.00
2018-03-04T02:32:17.404Z,60.60
2018-03-04T02:34:48.926Z,62.37
2018-03-04T02:37:16.622Z,60.60
2018-03-04T02:39:44.238Z,63.13
2018-03-04T02:42:11.872Z,63.53
2018-03-04T02:44:39.529Z,63.53
2018-03-04T02:47:07.168Z,66.37
2018-03-04T02:49:34.809Z,62.53
2018-03-04T02:52:02.454Z,65.00
2018-03-04T02:54:30.091Z,62.43
2018-03-04T02:56:57.726Z,65.90
2018-03-04T02:59:25.371Z,65.60
2018-03-04T03:01:53.014Z,62.73
2018-03-04T03:04:20.657Z,66.30
2018-03-04T03:06:48.314Z,63.10
2018-03-04T03:09:15.968Z,68.63
2018-03-04T03:11:44.380Z,64.83
2018-03-04T03:14:12.033Z,64.87
2018-03-04T03:16:39.668Z,64.93
2018-03-04T03:19:07.313Z,63.37
2018-03-04T03:21:34.949Z,65.83
2018-03-04T03:24:02.594Z,67.00
2018-03-04T03:26:30.998Z,66.47
2018-03-04T03:28:58.628Z,66.73
2018-03-04T03:31:27.250Z,66.03
2018-03-04T03:33:54.940Z,61.20
2018-03-04T03:36:22.580Z,60.53
2018-03-04T03:38:50.232Z,58.13
2018-03-04T03:41:18.636Z,59.83
2018-03-04T03:43:46.272Z,62.73
2018-03-04T03:46:14.691Z,62.67
2018-03-04T03:48:42.344Z,59.77
2018-03-04T03:51:09.992Z,64.63
2018-03-04T03:53:37.634Z,63.33
2018-03-04T03:56:05.557Z,64.03
2018-03-04T03:58:33.202Z,59.40
2018-03-04T04:01:11.602Z,62.60
2018-03-04T04:03:39.218Z,59.07
2018-03-04T04:06:06.865Z,60.57
2018-03-04T04:08:34.522Z,56.43
2018-03-04T04:11:02.148Z,58.77
2018-03-04T04:13:29.800Z,58.50
2018-03-04T04:15:57.457Z,56.20
2018-03-04T04:18:25.082Z,53.70
2018-03-04T04:20:53.481Z,50.97
2018-03-04T04:23:21.125Z,50.47
2018-03-04T04:25:49.568Z,50.10
2018-03-04T04:28:17.207Z,50.60
2018-03-04T04:30:44.855Z,49.60
2018-03-04T04:33:12.502Z,46.00
2018-03-04T04:35:40.900Z,50.23
2018-03-04T04:38:08.573Z,51.87
2018-03-04T04:40:36.212Z,56.40
2018-03-04T04:43:03.856Z,56.13
2018-03-04T04:45:31.492Z,53.40
2018-03-04T04:47:59.164Z,57.20
2018-03-04T04:50:26.792Z,55.37
2018-03-04T04:52:55.194Z,57.13
2018-03-04T04:55:22.863Z,56.27
2018-03-04T04:57:50.496Z,57.10
2018-03-04T05:00:20.817Z,58.43
2018-03-04T05:02:48.458Z,59.17
2018-03-04T05:05:16.126Z,57.80
2018-03-04T05:07:43.769Z,60.13
2018-03-04T05:10:11.406Z,60.53
2018-03-04T05:12:39.805Z,61.17
2018-03-04T05:15:07.474Z,58.63
2018-03-04T05:17:35.116Z,59.17
2018-03-04T05:20:03.508Z,60.40
2018-03-04T05:22:31.148Z,55.47
2018-03-04T05:24:58.784Z,55.93
2018-03-04T05:27:26.436Z,57.47
2018-03-04T05:29:54.068Z,57.97
2018-03-04T05:32:22.464Z,58.20
2018-03-04T05:34:50.100Z,55.00
2018-03-04T05:37:19.723Z,57.30
2018-03-04T05:39:48.124Z,59.30
2018-03-04T05:42:15.760Z,56.40
2018-03-04T05:44:43.397Z,60.07
2018-03-04T05:47:11.046Z,59.27
2018-03-04T05:49:38.676Z,59.20
2018-03-04T05:52:07.130Z,57.53
2018-03-04T05:54:35.671Z,57.70
2018-03-04T05:57:03.305Z,61.23
2018-03-04T05:59:31.704Z,59.03
2018-03-04T06:01:59.389Z,77.85
2018-03-04T06:04:27.770Z,65.20
2018-03-04T06:06:55.407Z,62.47
2018-03-04T06:09:23.811Z,61.47
2018-03-04T06:11:51.460Z,63.23
2018-03-04T06:14:19.876Z,62.20
2018-03-04T06:16:47.513Z,60.10
2018-03-04T06:19:15.904Z,58.90
2018-03-04T06:21:43.544Z,59.47
2018-03-04T06:24:11.192Z,60.27
2018-03-04T06:26:38.830Z,59.73
2018-03-04T06:29:06.472Z,60.93
2018-03-04T06:31:34.104Z,61.93
2018-03-04T06:34:01.762Z,59.57
2018-03-04T06:36:29.383Z,61.53
2018-03-04T06:38:57.016Z,59.23
2018-03-04T06:41:25.426Z,59.80
2018-03-04T06:43:53.063Z,59.70
2018-03-04T06:46:20.697Z,56.40
2018-03-04T06:48:48.329Z,57.17
2018-03-04T06:51:15.963Z,59.30
2018-03-04T06:53:43.599Z,57.90
2018-03-04T06:56:11.229Z,57.30
2018-03-04T06:58:38.855Z,58.47
2018-03-04T07:01:06.489Z,57.93
2018-03-04T07:03:35.116Z,57.83
2018-03-04T07:06:02.750Z,59.90
2018-03-04T07:08:30.376Z,57.67
2018-03-04T07:10:58.009Z,58.00
2018-03-04T07:13:25.657Z,54.93
2018-03-04T07:15:53.284Z,55.90
2018-03-04T07:18:20.924Z,57.13
2018-03-04T07:20:50.320Z,54.83
2018-03-04T07:23:17.948Z,54.23
2018-03-04T07:25:45.844Z,55.40
2018-03-04T07:28:17.425Z,51.07
2018-03-04T07:30:45.809Z,39.40
2018-03-04T07:33:14.205Z,39.30
2018-03-04T07:35:42.596Z,39.97
2018-03-04T07:38:10.224Z,38.97
2018-03-04T07:40:43.329Z,37.77
2018-03-04T07:43:10.949Z,36.23
2018-03-04T07:45:43.978Z,37.43
2018-03-04T07:48:11.661Z,35.90
2018-03-04T07:50:43.605Z,38.10
2018-03-04T07:53:12.181Z,36.80
2018-03-04T07:55:39.808Z,36.63
2018-03-04T07:58:07.426Z,36.37
2018-03-04T08:00:35.047Z,36.87
2018-03-04T08:03:02.687Z,42.53
2018-03-04T08:05:30.311Z,36.63
2018-03-04T08:07:57.948Z,36.97
2018-03-04T08:10:25.573Z,38.33
2018-03-04T08:12:53.220Z,36.97
2018-03-04T08:15:20.832Z,35.70
2018-03-04T08:17:48.471Z,34.13
2018-03-04T08:20:16.861Z,35.47
2018-03-04T08:22:44.492Z,34.60
2018-03-04T08:25:24.093Z,35.10
2018-03-04T08:30:54.796Z,33.43
2018-03-04T08:33:22.421Z,34.37
2018-03-04T08:35:50.040Z,34.37
2018-03-04T08:38:17.664Z,34.97
2018-03-04T08:40:45.641Z,35.67
2018-03-04T08:43:13.261Z,33.67
2018-03-04T08:45:40.885Z,32.20
2018-03-04T08:48:08.517Z,33.43
2018-03-04T08:50:36.141Z,35.60
2018-03-04T08:53:03.771Z,33.87
2018-03-04T08:55:31.502Z,31.33
2018-03-04T08:57:59.128Z,31.73
2018-03-04T09:00:27.553Z,30.40
2018-03-04T09:02:55.217Z,30.00
2018-03-04T09:05:22.865Z,28.37
2018-03-04T09:07:50.489Z,32.53
2018-03-04T09:10:18.176Z,29.60
2018-03-04T09:12:46.586Z,29.80
2018-03-04T09:15:14.201Z,28.83
2018-03-04T09:17:41.823Z,28.90
2018-03-04T09:20:09.445Z,29.00
2018-03-04T09:22:37.116Z,29.53
2018-03-04T09:25:04.717Z,28.17
2018-03-04T09:27:32.341Z,26.40
2018-03-04T09:30:00.726Z,26.80
2018-03-04T09:32:28.748Z,26.63
2018-03-04T09:34:56.368Z,27.63
2018-03-04T09:37:24.029Z,25.13
2018-03-04T09:39:51.648Z,26.93
2018-03-04T09:42:19.269Z,28.30
2018-03-04T09:44:47.133Z,27.67
2018-03-04T09:47:14.925Z,25.30
2018-03-04T09:49:42.712Z,28.13
2018-03-04T09:52:11.224Z,24.77
2018-03-04T09:54:39.110Z,24.60
2018-03-04T09:57:06.886Z,23.90
2018-03-04T09:59:34.666Z,24.67
2018-03-04T10:02:02.569Z,21.93
2018-03-04T10:04:30.597Z,22.77
2018-03-04T10:06:58.358Z,21.73
2018-03-04T10:09:26.282Z,22.60
2018-03-04T10:12:01.400Z,22.23
2018-03-04T10:14:29.346Z,21.17
2018-03-04T10:17:00.583Z,21.93
2018-03-04T10:19:28.364Z,20.50
2018-03-04T10:21:59.822Z,21.30
2018-03-04T10:24:28.848Z,22.17
2018-03-04T10:26:57.329Z,21.30
2018-03-04T10:29:26.457Z,20.63
2018-03-04T10:31:55.072Z,21.13
2018-03-04T10:34:22.724Z,20.77
2018-03-04T10:36:52.778Z,19.83
2018-03-04T10:39:21.468Z,21.17
2018-03-04T10:41:49.556Z,19.40
2018-03-04T10:44:17.618Z,19.00
2018-03-04T10:46:45.680Z,19.17
2018-03-04T10:49:13.535Z,18.70
2018-03-04T10:51:42.014Z,18.63
2018-03-04T10:54:09.801Z,19.43
2018-03-04T10:56:37.567Z,17.80
2018-03-04T10:59:05.497Z,16.63
2018-03-04T11:01:34.336Z,17.03
2018-03-04T11:04:02.339Z,17.13
2018-03-04T11:06:30.236Z,17.27
2018-03-04T11:08:57.948Z,16.67
2018-03-04T11:11:25.729Z,15.83
2018-03-04T11:13:53.513Z,14.33
2018-03-04T11:16:21.165Z,14.67
2018-03-04T11:18:48.805Z,14.37
2018-03-04T11:21:16.440Z,15.40
2018-03-04T11:23:44.838Z,14.33
2018-03-04T11:26:12.476Z,13.87
2018-03-04T11:28:40.136Z,15.77
2018-03-04T11:31:07.796Z,14.90
2018-03-04T11:33:35.409Z,16.10
2018-03-04T11:36:03.036Z,20.53
2018-03-04T11:38:30.669Z,24.93
2018-03-04T11:40:58.305Z,40.47
2018-03-04T11:43:25.936Z,19.80
2018-03-04T11:45:54.368Z,20.47
2018-03-04T11:48:22.020Z,22.20
2018-03-04T11:50:50.408Z,21.30
2018-03-04T11:53:18.057Z,31.20
2018-03-04T11:55:46.452Z,18.90
2018-03-04T11:58:14.090Z,18.17
2018-03-04T12:00:41.734Z,15.63
2018-03-04T12:03:14.866Z,16.87
2018-03-04T12:05:43.275Z,18.20
2018-03-04T12:08:10.893Z,16.80
2018-03-04T12:10:38.539Z,13.63
2018-03-04T12:13:06.172Z,13.63
2018-03-04T12:15:33.840Z,12.90
2018-03-04T12:18:01.472Z,13.40
2018-03-04T12:20:29.870Z,12.37
2018-03-04T12:22:58.261Z,15.80
2018-03-04T12:25:32.105Z,12.10
2018-03-04T12:27:59.728Z,10.47
2018-03-04T12:30:27.368Z,11.93
2018-03-04T12:32:54.988Z,12.57
2018-03-04T12:35:22.643Z,11.30
2018-03-04T12:37:50.269Z,14.33
2018-03-04T12:40:17.916Z,13.70
2018-03-04T12:42:45.535Z,13.90
2018-03-04T12:45:14.192Z,13.27
2018-03-04T12:47:41.837Z,13.80
2018-03-04T12:50:09.468Z,13.10
2018-03-04T12:52:37.121Z,13.20
2018-03-04T12:55:04.748Z,13.40
2018-03-04T12:57:32.385Z,13.10
2018-03-04T13:00:00.013Z,12.80
2018-03-04T13:02:27.649Z,13.23
2018-03-04T13:04:55.292Z,13.67
2018-03-04T13:07:22.928Z,12.87
2018-03-04T13:09:58.608Z,14.57
2018-03-04T13:12:26.248Z,14.03
2018-03-04T13:14:53.880Z,13.77
2018-03-04T13:17:22.277Z,13.40
2018-03-04T13:19:49.914Z,14.03
2018-03-04T13:22:17.594Z,12.87
2018-03-04T13:24:50.876Z,12.87
2018-03-04T13:27:18.528Z,10.77
2018-03-04T13:29:46.137Z,11.70
2018-03-04T13:32:13.769Z,10.60
2018-03-04T13:34:42.172Z,9.97
2018-03-04T13:37:10.577Z,10.17
2018-03-04T13:39:38.211Z,11.30
2018-03-04T13:42:17.206Z,10.97
2018-03-04T13:44:44.820Z,9.23
2018-03-04T13:47:25.264Z,8.17
2018-03-04T13:49:53.652Z,8.50
2018-03-04T13:52:22.048Z,9.27
2018-03-04T13:54:49.680Z,9.67
2018-03-04T13:57:17.310Z,8.40
2018-03-04T13:59:49.208Z,8.07
2018-03-04T14:02:16.837Z,8.37
2018-03-04T14:04:44.460Z,7.67
2018-03-04T14:07:12.105Z,6.60
2018-03-04T14:09:43.881Z,7.10
2018-03-04T14:12:11.495Z,6.70
2018-03-04T14:14:39.122Z,6.43
2018-03-04T14:17:07.503Z,6.00
2018-03-04T14:19:35.901Z,7.33
2018-03-04T14:22:03.525Z,6.80
2018-03-04T14:24:31.145Z,7.10
2018-03-04T14:26:58.768Z,6.60
2018-03-04T14:29:26.424Z,6.00
2018-03-04T14:31:54.058Z,8.30
2018-03-04T14:34:21.679Z,6.30
2018-03-04T14:36:50.069Z,6.27
2018-03-04T14:39:18.463Z,6.53
2018-03-04T14:41:46.084Z,6.33
2018-03-04T14:44:13.708Z,7.10
2018-03-04T14:46:41.335Z,6.07
2018-03-04T14:49:08.963Z,6.10
2018-03-04T14:51:36.592Z,6.17
2018-03-04T14:54:04.220Z,6.27
2018-03-04T14:56:37.634Z,6.07
2018-03-04T14:59:05.273Z,5.87
2018-03-04T15:01:35.938Z,6.17
2018-03-04T15:04:05.993Z,6.40
2018-03-04T15:06:33.641Z,6.97
2018-03-04T15:09:02.028Z,7.13
2018-03-04T15:11:30.449Z,6.23
2018-03-04T15:13:58.101Z,6.80
2018-03-04T15:16:25.724Z,6.40
2018-03-04T15:18:53.344Z,6.77
2018-03-04T15:21:20.977Z,6.93
2018-03-04T15:23:48.624Z,6.90
2018-03-04T15:26:16.260Z,7.13
2018-03-04T15:28:43.896Z,7.50
2018-03-04T15:31:11.521Z,7.50
2018-03-04T15:33:39.932Z,9.60
2018-03-04T15:36:07.545Z,8.00
2018-03-04T15:38:35.181Z,8.57
2018-03-04T15:41:02.821Z,7.40
2018-03-04T15:43:34.440Z,7.40
2018-03-04T15:46:02.057Z,7.27
2018-03-04T15:48:29.690Z,6.57
2018-03-04T15:50:57.350Z,6.70
2018-03-04T15:53:24.941Z,6.50
2018-03-04T15:55:52.573Z,6.80
2018-03-04T15:58:20.200Z,6.90
2018-03-04T16:00:47.840Z,6.37
2018-03-04T16:06:07.810Z,6.10
2018-03-04T16:08:35.432Z,7.87
2018-03-04T16:11:03.052Z,7.57
2018-03-04T16:13:31.457Z,6.63
2018-03-04T16:15:59.076Z,6.03
2018-03-04T16:18:26.704Z,6.53
2018-03-04T16:20:54.337Z,6.57
2018-03-04T16:23:22.736Z,5.97
2018-03-04T16:25:50.373Z,5.97
2018-03-04T16:28:17.993Z,6.00
2018-03-04T16:30:45.621Z,6.40
2018-03-04T16:33:14.024Z,5.80
2018-03-04T16:35:41.665Z,5.80
2018-03-04T16:38:10.066Z,5.97
2018-03-04T16:40:37.696Z,5.60
2018-03-04T16:43:05.320Z,6.47
2018-03-04T16:45:32.952Z,5.63
2018-03-04T16:48:01.345Z,5.90
2018-03-04T16:50:28.968Z,6.60
2018-03-04T16:52:56.604Z,5.80
2018-03-04T16:55:24.637Z,6.40
2018-03-04T16:57:53.038Z,6.40
2018-03-04T17:00:21.228Z,6.13
2018-03-04T17:02:49.599Z,6.43
2018-03-04T17:05:17.250Z,7.03
2018-03-04T17:07:45.635Z,6.83
2018-03-04T17:10:14.041Z,7.10
2018-03-04T17:12:41.673Z,9.27
2018-03-04T17:15:09.297Z,8.00
2018-03-04T17:17:36.928Z,8.17
2018-03-04T17:20:05.310Z,8.50
2018-03-04T17:22:32.950Z,10.30
2018-03-04T17:25:00.693Z,10.70
2018-03-04T17:27:28.320Z,12.10
2018-03-04T17:29:56.961Z,12.13
2018-03-04T17:32:24.585Z,11.63
2018-03-04T17:34:52.205Z,11.93
2018-03-04T17:37:19.847Z,11.97
2018-03-04T17:39:48.500Z,11.50
2018-03-04T17:42:16.124Z,11.30
2018-03-04T17:44:43.769Z,11.13
2018-03-04T17:47:11.404Z,11.83
2018-03-04T17:49:40.065Z,12.57
2018-03-04T17:52:08.452Z,11.90
2018-03-04T17:54:36.097Z,12.17
2018-03-04T17:57:03.712Z,12.30
2018-03-04T17:59:31.347Z,13.43
2018-03-04T18:01:59.752Z,12.83
2018-03-04T18:04:27.393Z,12.70
2018-03-04T18:06:55.796Z,12.00
2018-03-04T18:09:23.456Z,13.53
2018-03-04T18:11:51.108Z,13.10
2018-03-04T18:14:19.570Z,13.27
2018-03-04T18:16:47.162Z,13.10
2018-03-04T18:19:14.834Z,12.97
2018-03-04T18:21:42.472Z,14.93
2018-03-04T18:24:10.121Z,13.67
2018-03-04T18:26:37.778Z,15.00
2018-03-04T18:29:05.409Z,16.00
2018-03-04T18:31:33.041Z,15.97
2018-03-04T18:34:00.685Z,16.83
2018-03-04T18:36:28.308Z,17.50
2018-03-04T18:38:55.953Z,17.27
2018-03-04T18:41:24.364Z,17.67
2018-03-04T18:43:52.007Z,17.23
2018-03-04T18:46:20.907Z,18.70
2018-03-04T18:48:49.332Z,19.43
2018-03-04T18:51:16.980Z,17.07
2018-03-04T18:53:44.611Z,18.03
2018-03-04T18:56:13.036Z,17.40
2018-03-04T18:58:40.676Z,18.77
2018-03-04T19:01:08.317Z,20.37
2018-03-04T19:03:35.938Z,20.97
2018-03-04T19:06:03.581Z,21.70
2018-03-04T19:08:39.983Z,19.93
2018-03-04T19:11:07.634Z,20.80
2018-03-04T19:13:35.303Z,21.47
2018-03-04T19:16:02.912Z,20.97
2018-03-04T19:18:31.330Z,20.63
2018-03-04T19:20:59.861Z,21.33
2018-03-04T19:23:27.507Z,21.87
2018-03-04T19:25:55.157Z,21.10
2018-03-04T19:28:22.825Z,22.10
2018-03-04T19:30:50.504Z,22.13
2018-03-04T19:33:18.165Z,23.07
2018-03-04T19:35:45.792Z,22.23
2018-03-04T19:38:14.196Z,23.20
2018-03-04T19:40:41.912Z,21.73
2018-03-04T19:43:09.586Z,21.80
2018-03-04T19:45:39.240Z,21.07
2018-03-04T19:48:06.946Z,20.63
2018-03-04T19:50:35.305Z,20.97
2018-03-04T19:53:02.941Z,21.00
2018-03-04T19:55:31.348Z,22.10
2018-03-04T19:57:59.193Z,21.57
2018-03-04T20:00:27.666Z,21.67
2018-03-04T20:02:55.325Z,20.93
2018-03-04T20:05:24.477Z,19.80
2018-03-04T20:07:52.140Z,19.50
2018-03-04T20:10:19.826Z,20.17
2018-03-04T20:12:47.469Z,19.73
2018-03-04T20:15:15.105Z,20.83
2018-03-04T20:17:42.756Z,21.13
2018-03-04T20:20:10.393Z,20.90
2018-03-04T20:22:38.053Z,20.80
2018-03-04T20:25:05.701Z,20.17
2018-03-04T20:27:33.340Z,20.77
2018-03-04T20:30:01.750Z,20.37
2018-03-04T20:32:29.413Z,19.97
2018-03-04T20:34:58.107Z,21.63
2018-03-04T20:37:25.752Z,20.63
2018-03-04T20:39:53.368Z,20.87
2018-03-04T20:42:20.997Z,19.80
2018-03-04T20:44:48.638Z,19.80
2018-03-04T20:47:16.272Z,21.30
2018-03-04T20:49:43.903Z,19.80
2018-03-04T20:52:11.580Z,20.37
2018-03-04T20:54:39.213Z,20.27
2018-03-04T20:57:08.604Z,20.67
2018-03-04T20:59:36.233Z,20.87
2018-03-04T21:02:03.844Z,20.47
2018-03-04T21:04:31.472Z,21.60
2018-03-04T21:06:59.140Z,20.10
2018-03-04T21:09:26.733Z,20.17
2018-03-04T21:11:54.355Z,19.40
2018-03-04T21:14:21.994Z,19.93
2018-03-04T21:16:50.380Z,20.23
2018-03-04T21:19:18.058Z,18.17
2018-03-04T21:21:45.681Z,18.27
2018-03-04T21:24:13.337Z,18.77
2018-03-04T21:26:40.944Z,19.87
2018-03-04T21:29:08.581Z,19.13
2018-03-04T21:31:36.205Z,21.27
2018-03-04T21:34:03.828Z,19.70
2018-03-04T21:36:46.641Z,19.97
2018-03-04T21:39:15.037Z,18.23
2018-03-04T21:41:42.656Z,19.90
2018-03-04T21:44:10.549Z,18.97
2018-03-04T21:46:38.169Z,20.47
2018-03-04T21:49:05.792Z,19.73
2018-03-04T21:51:34.188Z,19.30
2018-03-04T21:54:02.581Z,20.23
2018-03-04T21:56:30.218Z,18.40
2018-03-04T21:58:57.837Z,18.80
2018-03-04T22:01:25.476Z,19.20
2018-03-04T22:03:53.868Z,19.83
2018-03-04T22:06:21.500Z,17.43
2018-03-04T22:08:49.128Z,20.57
2018-03-04T22:11:16.813Z,17.97
2018-03-04T22:13:44.376Z,17.40
2018-03-04T22:16:12.001Z,16.73
2018-03-04T22:18:39.627Z,17.30
2018-03-04T22:21:08.012Z,18.63
2018-03-04T22:23:35.639Z,16.50
2018-03-04T22:26:08.756Z,15.73
2018-03-04T22:28:36.392Z,16.90
2018-03-04T22:31:04.016Z,17.53
2018-03-04T22:33:32.409Z,18.03
2018-03-04T22:36:00.082Z,16.60
2018-03-04T22:38:27.709Z,15.80
2018-03-04T22:40:55.369Z,17.73
2018-03-04T22:43:22.988Z,16.47
2018-03-04T22:45:50.612Z,15.53
2018-03-04T22:48:18.247Z,16.57
2018-03-04T22:50:45.869Z,15.80
2018-03-04T22:53:13.488Z,15.47
2018-03-04T22:55:41.120Z,15.53
2018-03-04T22:58:08.749Z,15.07
2018-03-04T23:00:36.385Z,14.50
2018-03-04T23:03:04.010Z,15.83
2018-03-04T23:05:31.645Z,14.90
2018-03-04T23:08:00.042Z,15.70
2018-03-04T23:10:27.669Z,15.73
2018-03-04T23:12:55.297Z,14.37
2018-03-04T23:15:22.929Z,13.80
2018-03-04T23:17:50.553Z,14.33
2018-03-04T23:20:18.177Z,14.10
2018-03-04T23:22:45.801Z,13.73
2018-03-04T23:25:13.422Z,13.17
2018-03-04T23:27:41.049Z,13.67
2018-03-04T23:30:09.440Z,13.27
2018-03-04T23:32:37.077Z,11.33
2018-03-04T23:35:04.701Z,11.23
2018-03-04T23:37:32.326Z,11.50
2018-03-04T23:39:59.952Z,11.87
2018-03-04T23:42:27.569Z,10.97
2018-03-04T23:44:55.960Z,11.47
2018-03-04T23:47:24.352Z,12.67
2018-03-04T23:49:52.741Z,11.50
2018-03-04T23:52:20.364Z,12.67
2018-03-04T23:54:47.992Z,10.60
2018-03-04T23:57:15.637Z,11.20
2018-03-04T23:59:44.021Z,11.57
